createdAt,value
2022-08-19T00:00:57.159Z,18.42
2022-08-19T00:03:24.058Z,18.41
2022-08-19T00:05:50.902Z,18.41
2022-08-19T00:08:17.764Z,18.39
2022-08-19T00:10:44.612Z,18.39
2022-08-19T00:13:11.515Z,18.41
2022-08-19T00:15:38.361Z,18.41
2022-08-19T00:18:05.234Z,18.42
2022-08-19T00:20:32.151Z,18.46
2022-08-19T00:22:58.994Z,18.47
2022-08-19T00:25:30.260Z,18.53
2022-08-19T00:27:57.726Z,18.55
2022-08-19T00:30:24.906Z,18.55
2022-08-19T00:32:51.865Z,18.54
2022-08-19T00:35:18.935Z,18.53
2022-08-19T00:37:45.790Z,18.50
2022-08-19T00:40:13.226Z,18.47
2022-08-19T00:42:40.191Z,18.43
2022-08-19T00:45:12.097Z,18.45
2022-08-19T00:47:39.079Z,18.41
2022-08-19T00:50:07.001Z,18.45
2022-08-19T00:52:35.817Z,18.45
2022-08-19T00:55:03.386Z,18.44
2022-08-19T00:57:33.124Z,18.49
2022-08-19T01:00:03.130Z,18.50
2022-08-19T01:02:31.379Z,18.48
2022-08-19T01:04:58.389Z,18.49
2022-08-19T01:07:25.492Z,18.46
2022-08-19T01:09:52.607Z,18.44
2022-08-19T01:12:19.661Z,18.40
2022-08-19T01:14:47.657Z,18.43
2022-08-19T01:17:15.308Z,18.41
2022-08-19T01:19:43.923Z,18.42
2022-08-19T01:22:28.728Z,18.42
2022-08-19T01:24:55.792Z,18.27
2022-08-19T01:27:23.444Z,18.29
2022-08-19T01:29:51.585Z,18.25
2022-08-19T01:32:32.377Z,18.16
2022-08-19T01:35:01.391Z,18.17
2022-08-19T01:37:28.240Z,18.21
2022-08-19T01:39:55.113Z,18.21
2022-08-19T01:42:22.015Z,18.22
2022-08-19T01:44:57.359Z,18.22
2022-08-19T01:47:24.245Z,18.19
2022-08-19T01:49:51.098Z,18.17
2022-08-19T01:52:17.950Z,18.20
2022-08-19T01:54:44.809Z,18.24
2022-08-19T01:57:13.425Z,18.28
2022-08-19T01:59:41.035Z,18.30
2022-08-19T02:02:08.182Z,18.29
2022-08-19T02:04:35.384Z,18.27
2022-08-19T02:07:02.294Z,18.29
2022-08-19T02:09:29.186Z,18.26
2022-08-19T02:11:56.044Z,18.26
2022-08-19T02:14:22.940Z,18.26
2022-08-19T02:16:49.793Z,18.20
2022-08-19T02:19:17.006Z,18.20
2022-08-19T02:21:43.884Z,18.27
2022-08-19T02:24:10.750Z,18.28
2022-08-19T02:26:37.606Z,18.28
2022-08-19T02:29:04.627Z,18.32
2022-08-19T02:31:31.492Z,18.36
2022-08-19T02:33:58.564Z,18.37
2022-08-19T02:36:26.202Z,18.40
2022-08-19T02:38:54.777Z,18.43
2022-08-19T02:41:27.625Z,18.46
2022-08-19T02:44:28.883Z,18.37
2022-08-19T02:46:42.040Z,18.37
2022-08-19T02:49:08.871Z,18.33
2022-08-19T02:51:37.104Z,18.35
2022-08-19T02:54:04.663Z,18.38
2022-08-19T02:56:31.813Z,18.36
2022-08-19T02:58:58.730Z,18.28
2022-08-19T03:01:27.515Z,18.33
2022-08-19T03:03:55.074Z,18.33
2022-08-19T03:06:22.794Z,18.35
2022-08-19T03:08:49.998Z,18.36
2022-08-19T03:11:21.890Z,18.33
2022-08-19T03:13:49.058Z,18.37
2022-08-19T03:16:16.527Z,18.41
2022-08-19T03:18:43.420Z,18.43
2022-08-19T03:21:12.360Z,18.43
2022-08-19T03:23:39.397Z,18.45
2022-08-19T03:26:16.808Z,18.45
2022-08-19T03:28:51.129Z,18.44
2022-08-19T03:31:43.664Z,18.44
2022-08-19T03:34:23.424Z,18.42
2022-08-19T03:36:50.259Z,18.43
2022-08-19T03:39:17.414Z,18.45
2022-08-19T03:41:46.544Z,18.48
2022-08-19T03:44:18.429Z,18.50
2022-08-19T03:46:46.789Z,18.50
2022-08-19T03:49:14.287Z,18.52
2022-08-19T03:51:42.247Z,18.53
2022-08-19T03:54:10.903Z,18.51
2022-08-19T03:56:39.032Z,18.49
2022-08-19T03:59:07.229Z,18.45
2022-08-19T04:01:46.449Z,18.44
2022-08-19T04:04:13.288Z,18.40
2022-08-19T04:06:40.527Z,18.39
2022-08-19T04:09:08.971Z,18.39
2022-08-19T04:11:43.571Z,18.36
2022-08-19T04:14:16.549Z,18.38
2022-08-19T04:16:43.976Z,18.41
2022-08-19T04:19:10.995Z,18.38
2022-08-19T04:21:37.872Z,18.41
2022-08-19T04:24:04.918Z,18.44
2022-08-19T04:26:33.735Z,18.40
2022-08-19T04:29:01.008Z,18.42
2022-08-19T04:31:29.151Z,18.42
2022-08-19T04:34:00.302Z,18.37
2022-08-19T04:36:28.535Z,18.40
2022-08-19T04:38:59.417Z,18.41
2022-08-19T04:41:26.677Z,18.42
2022-08-19T04:43:53.507Z,18.44
2022-08-19T04:46:39.652Z,18.42
2022-08-19T04:49:13.033Z,18.46
2022-08-19T04:51:42.444Z,18.51
2022-08-19T04:54:09.665Z,18.52
2022-08-19T04:56:36.620Z,18.56
2022-08-19T04:59:03.474Z,18.56
2022-08-19T05:01:31.910Z,18.56
2022-08-19T05:03:59.567Z,18.52
2022-08-19T05:06:26.462Z,18.57
2022-08-19T05:08:53.374Z,18.59
2022-08-19T05:11:26.318Z,18.58
2022-08-19T05:13:53.459Z,18.56
2022-08-19T05:16:21.662Z,18.61
2022-08-19T05:18:48.767Z,18.66
2022-08-19T05:21:17.438Z,18.70
2022-08-19T05:23:44.365Z,18.76
2022-08-19T05:26:11.932Z,18.77
2022-08-19T05:28:38.779Z,18.78
2022-08-19T05:31:05.619Z,18.82
2022-08-19T05:33:32.436Z,18.84
2022-08-19T05:35:59.274Z,18.83
2022-08-19T05:38:27.179Z,18.91
2022-08-19T05:40:54.013Z,18.93
2022-08-19T05:43:20.887Z,18.98
2022-08-19T05:45:47.760Z,19.01
2022-08-19T05:48:14.937Z,19.03
2022-08-19T05:50:42.842Z,19.06
2022-08-19T05:53:10.179Z,19.10
2022-08-19T05:55:37.025Z,19.07
2022-08-19T05:58:03.880Z,19.15
2022-08-19T06:00:30.730Z,19.17
2022-08-19T06:02:57.716Z,19.18
2022-08-19T06:05:24.614Z,19.22
2022-08-19T06:07:51.445Z,19.24
2022-08-19T06:10:18.265Z,19.32
2022-08-19T06:12:45.134Z,19.32
2022-08-19T06:15:13.070Z,19.34
2022-08-19T06:17:40.449Z,19.38
2022-08-19T06:20:09.162Z,19.38
2022-08-19T06:22:39.447Z,19.45
2022-08-19T06:25:06.493Z,19.48
2022-08-19T06:27:33.352Z,19.52
2022-08-19T06:30:00.281Z,19.53
2022-08-19T06:32:27.124Z,19.55
2022-08-19T06:34:53.954Z,19.55
2022-08-19T06:37:20.805Z,19.56
2022-08-19T06:39:47.797Z,19.46
2022-08-19T06:42:14.697Z,19.49
2022-08-19T06:44:43.162Z,19.46
2022-08-19T06:47:14.673Z,19.50
2022-08-19T06:49:49.992Z,19.48
2022-08-19T06:52:16.979Z,19.49
2022-08-19T06:54:45.920Z,19.48
2022-08-19T06:57:24.087Z,19.55
2022-08-19T06:59:51.090Z,19.60
2022-08-19T07:04:52.715Z,19.71
2022-08-19T07:07:21.270Z,19.79
2022-08-19T07:09:58.475Z,19.84
2022-08-19T07:12:27.940Z,19.90
2022-08-19T07:14:57.091Z,19.90
2022-08-19T07:17:24.595Z,20.00
2022-08-19T07:19:51.819Z,20.04
2022-08-19T07:22:22.168Z,20.13
2022-08-19T07:24:51.729Z,20.16
2022-08-19T07:27:19.074Z,20.16
2022-08-19T07:29:59.755Z,20.19
2022-08-19T07:32:26.928Z,20.21
2022-08-19T07:34:53.844Z,20.23
2022-08-19T07:37:20.670Z,20.26
2022-08-19T07:39:47.618Z,20.45
2022-08-19T07:42:14.497Z,20.61
2022-08-19T07:44:41.921Z,20.75
2022-08-19T07:47:47.162Z,20.86
2022-08-19T07:49:55.703Z,20.96
2022-08-19T07:52:22.618Z,21.03
2022-08-19T07:54:49.468Z,21.02
2022-08-19T07:57:16.673Z,20.89
2022-08-19T07:59:43.532Z,20.82
2022-08-19T08:02:12.208Z,20.90
2022-08-19T08:04:39.021Z,20.95
2022-08-19T08:07:06.503Z,20.99
2022-08-19T08:09:39.427Z,21.02
2022-08-19T08:12:32.846Z,20.95
2022-08-19T08:14:56.649Z,20.96
2022-08-19T08:17:40.947Z,21.02
2022-08-19T08:20:12.689Z,21.20
2022-08-19T08:22:43.632Z,21.30
2022-08-19T08:25:14.739Z,21.28
2022-08-19T08:27:42.738Z,21.36
2022-08-19T08:30:11.330Z,21.28
2022-08-19T08:32:39.344Z,21.53
2022-08-19T08:35:09.288Z,21.68
2022-08-19T08:37:36.530Z,21.81
2022-08-19T08:40:26.727Z,21.94
2022-08-19T08:42:56.537Z,22.24
2022-08-19T08:45:24.478Z,22.39
2022-08-19T08:47:54.691Z,22.63
2022-08-19T08:50:51.007Z,22.97
2022-08-19T08:53:18.537Z,23.24
2022-08-19T08:55:56.791Z,23.55
2022-08-19T08:58:29.408Z,23.72
2022-08-19T09:00:56.298Z,23.86
2022-08-19T09:03:27.727Z,23.84
2022-08-19T09:06:01.394Z,23.87
2022-08-19T09:08:31.233Z,23.84
2022-08-19T09:10:58.613Z,23.76
2022-08-19T09:13:31.457Z,23.80
2022-08-19T09:16:28.057Z,24.04
2022-08-19T09:18:57.101Z,24.00
2022-08-19T09:21:30.371Z,23.87
2022-08-19T09:24:00.319Z,24.04
2022-08-19T09:26:47.185Z,23.88
2022-08-19T09:29:14.586Z,24.01
2022-08-19T09:31:41.570Z,23.87
2022-08-19T09:34:08.531Z,24.01
2022-08-19T09:36:49.100Z,24.09
2022-08-19T09:39:16.403Z,24.26
2022-08-19T09:41:47.360Z,23.93
2022-08-19T09:44:15.803Z,23.99
2022-08-19T09:46:42.907Z,24.28
2022-08-19T09:49:09.927Z,24.54
2022-08-19T09:51:36.761Z,24.65
2022-08-19T09:54:05.035Z,24.78
2022-08-19T09:56:32.491Z,24.64
2022-08-19T09:59:02.195Z,24.90
2022-08-19T10:01:30.677Z,25.15
2022-08-19T10:03:58.646Z,25.36
2022-08-19T10:06:43.862Z,25.40
2022-08-19T10:09:14.313Z,25.70
2022-08-19T10:11:46.176Z,25.97
2022-08-19T10:14:17.966Z,26.59
2022-08-19T10:16:44.807Z,27.12
2022-08-19T10:19:11.642Z,27.27
2022-08-19T10:21:38.467Z,27.27
2022-08-19T10:24:07.427Z,26.96
2022-08-19T10:26:38.313Z,27.69
2022-08-19T10:29:05.980Z,27.93
2022-08-19T10:32:01.236Z,28.16
2022-08-19T10:34:27.953Z,27.17
2022-08-19T10:36:56.315Z,27.14
2022-08-19T10:39:28.657Z,26.70
2022-08-19T10:41:57.668Z,26.68
2022-08-19T10:44:24.527Z,26.20
2022-08-19T10:46:51.735Z,26.18
2022-08-19T10:49:20.212Z,26.68
2022-08-19T10:51:48.678Z,26.75
2022-08-19T10:54:15.955Z,26.44
2022-08-19T10:56:43.110Z,26.08
2022-08-19T10:59:09.986Z,26.43
2022-08-19T11:01:36.891Z,26.79
2022-08-19T11:04:04.932Z,26.75
2022-08-19T11:06:34.881Z,26.67
2022-08-19T11:09:01.768Z,26.74
2022-08-19T11:11:28.603Z,27.10
2022-08-19T11:13:55.463Z,27.68
2022-08-19T11:16:24.044Z,28.04
2022-08-19T11:18:55.405Z,28.00
2022-08-19T11:21:26.387Z,27.54
2022-08-19T11:23:54.949Z,27.71
2022-08-19T11:26:22.175Z,28.14
2022-08-19T11:28:49.760Z,28.34
2022-08-19T11:31:20.345Z,27.69
2022-08-19T11:33:47.757Z,27.48
2022-08-19T11:36:15.334Z,27.73
2022-08-19T11:38:42.817Z,28.27
2022-08-19T11:41:09.674Z,28.72
2022-08-19T11:43:37.619Z,28.44
2022-08-19T11:46:05.857Z,28.41
2022-08-19T11:48:32.677Z,27.62
2022-08-19T11:50:59.564Z,27.63
2022-08-19T11:53:26.371Z,27.58
2022-08-19T11:55:54.348Z,27.91
2022-08-19T11:58:21.256Z,28.58
2022-08-19T12:00:48.215Z,29.02
2022-08-19T12:03:15.135Z,29.15
2022-08-19T12:05:42.160Z,28.51
2022-08-19T12:08:09.395Z,28.46
2022-08-19T12:10:36.597Z,28.29
2022-08-19T12:13:03.624Z,28.15
2022-08-19T12:15:36.931Z,27.87
2022-08-19T12:18:04.929Z,27.60
2022-08-19T12:20:35.531Z,27.38
2022-08-19T12:23:04.093Z,27.49
2022-08-19T12:25:30.975Z,27.43
2022-08-19T12:27:58.382Z,27.55
2022-08-19T12:30:25.594Z,27.87
2022-08-19T12:32:52.598Z,28.33
2022-08-19T12:35:19.903Z,28.80
2022-08-19T12:37:57.098Z,28.85
2022-08-19T12:40:26.436Z,28.74
2022-08-19T12:42:54.226Z,28.15
2022-08-19T12:45:21.047Z,27.92
2022-08-19T12:47:47.915Z,27.85
2022-08-19T12:50:16.778Z,27.52
2022-08-19T12:52:43.637Z,27.59
2022-08-19T12:55:10.963Z,27.68
2022-08-19T12:57:37.842Z,27.67
2022-08-19T13:00:21.576Z,27.58
2022-08-19T13:02:49.702Z,27.74
2022-08-19T13:05:26.715Z,27.82
2022-08-19T13:07:55.472Z,27.46
2022-08-19T13:10:23.047Z,27.68
2022-08-19T13:12:50.847Z,27.64
2022-08-19T13:15:21.717Z,27.30
2022-08-19T13:17:51.422Z,27.40
2022-08-19T13:20:19.376Z,27.52
2022-08-19T13:22:46.970Z,27.51
2022-08-19T13:25:14.099Z,27.42
2022-08-19T13:27:41.063Z,27.45
2022-08-19T13:30:20.853Z,27.39
2022-08-19T13:32:47.673Z,27.45
2022-08-19T13:35:17.079Z,27.42
2022-08-19T13:37:44.375Z,27.24
2022-08-19T13:40:19.470Z,27.26
2022-08-19T13:42:47.974Z,27.46
2022-08-19T13:45:16.102Z,27.51
2022-08-19T13:47:42.923Z,27.59
2022-08-19T13:50:10.794Z,27.72
2022-08-19T13:52:38.160Z,27.68
2022-08-19T13:55:05.616Z,27.71
2022-08-19T13:57:32.547Z,27.75
2022-08-19T13:59:59.428Z,27.78
2022-08-19T14:02:26.623Z,27.89
2022-08-19T14:04:53.702Z,28.10
2022-08-19T14:07:20.560Z,28.47
2022-08-19T14:09:47.400Z,28.87
2022-08-19T14:12:28.315Z,29.17
2022-08-19T14:14:56.075Z,29.37
2022-08-19T14:17:22.906Z,29.32
2022-08-19T14:19:49.766Z,29.27
2022-08-19T14:22:22.023Z,29.27
2022-08-19T14:24:49.380Z,29.25
2022-08-19T14:27:16.553Z,29.19
2022-08-19T14:29:43.387Z,29.04
2022-08-19T14:32:16.138Z,28.97
2022-08-19T14:34:43.789Z,28.82
2022-08-19T14:37:14.448Z,28.68
2022-08-19T14:39:41.873Z,28.33
2022-08-19T14:42:11.281Z,28.21
2022-08-19T14:44:38.525Z,28.16
2022-08-19T14:47:05.504Z,28.01
2022-08-19T14:49:35.257Z,28.09
2022-08-19T14:52:08.561Z,27.86
2022-08-19T14:54:35.375Z,27.86
2022-08-19T14:57:02.234Z,27.70
2022-08-19T14:59:29.097Z,27.75
2022-08-19T15:01:55.962Z,27.74
2022-08-19T15:04:22.811Z,27.73
2022-08-19T15:06:49.648Z,27.79
2022-08-19T15:09:17.597Z,27.71
2022-08-19T15:11:44.486Z,27.83
2022-08-19T15:14:11.334Z,27.95
2022-08-19T15:16:38.253Z,28.01
2022-08-19T15:19:05.094Z,27.95
2022-08-19T15:21:31.959Z,27.96
2022-08-19T15:23:59.467Z,27.91
2022-08-19T15:26:26.585Z,27.89
2022-08-19T15:28:53.446Z,27.87
2022-08-19T15:31:27.983Z,27.85
2022-08-19T15:33:58.872Z,27.80
2022-08-19T15:36:26.691Z,27.71
2022-08-19T15:38:53.837Z,27.80
2022-08-19T15:41:25.987Z,27.74
2022-08-19T15:44:03.193Z,27.77
2022-08-19T15:46:31.863Z,27.73
2022-08-19T15:49:00.037Z,27.50
2022-08-19T15:51:28.651Z,27.58
2022-08-19T15:53:56.192Z,27.64
2022-08-19T15:56:27.061Z,27.73
2022-08-19T15:58:54.236Z,27.76
2022-08-19T16:01:21.304Z,27.66
2022-08-19T16:03:49.416Z,27.74
2022-08-19T16:06:16.380Z,27.63
2022-08-19T16:08:49.235Z,27.65
2022-08-19T16:11:20.099Z,27.66
2022-08-19T16:13:47.595Z,27.59
2022-08-19T16:16:14.430Z,27.49
2022-08-19T16:18:41.265Z,27.48
2022-08-19T16:21:08.082Z,27.39
2022-08-19T16:23:35.557Z,27.30
2022-08-19T16:26:02.415Z,27.07
2022-08-19T16:28:29.244Z,26.87
2022-08-19T16:30:56.095Z,26.80
2022-08-19T16:33:23.201Z,26.80
2022-08-19T16:35:52.043Z,26.75
2022-08-19T16:38:28.202Z,26.62
2022-08-19T16:40:55.210Z,26.57
2022-08-19T16:43:22.664Z,26.49
2022-08-19T16:45:50.020Z,26.42
2022-08-19T16:48:16.870Z,26.29
2022-08-19T16:50:49.616Z,26.18
2022-08-19T16:53:17.969Z,25.99
2022-08-19T16:55:45.908Z,25.84
2022-08-19T16:58:12.734Z,25.68
2022-08-19T17:00:39.598Z,25.59
2022-08-19T17:03:07.188Z,25.41
2022-08-19T17:05:34.018Z,25.35
2022-08-19T17:08:00.829Z,25.38
2022-08-19T17:10:27.684Z,25.27
2022-08-19T17:12:54.585Z,25.14
2022-08-19T17:15:21.629Z,25.22
2022-08-19T17:17:48.541Z,25.21
2022-08-19T17:20:15.440Z,25.17
2022-08-19T17:22:42.288Z,25.16
2022-08-19T17:25:09.184Z,25.12
2022-08-19T17:27:36.042Z,25.07
2022-08-19T17:30:04.402Z,24.97
2022-08-19T17:32:31.451Z,24.93
2022-08-19T17:34:58.299Z,24.88
2022-08-19T17:37:25.147Z,24.78
2022-08-19T17:39:52.096Z,24.75
2022-08-19T17:42:18.983Z,24.71
2022-08-19T17:44:50.879Z,24.63
2022-08-19T17:47:18.187Z,24.48
2022-08-19T17:49:45.082Z,24.42
2022-08-19T17:52:11.908Z,24.36
2022-08-19T17:54:38.743Z,24.30
2022-08-19T17:57:05.608Z,24.26
2022-08-19T17:59:32.614Z,24.18
2022-08-19T18:02:00.646Z,24.07
2022-08-19T18:04:27.796Z,24.12
2022-08-19T18:06:55.524Z,24.13
2022-08-19T18:09:23.785Z,24.07
2022-08-19T18:11:52.755Z,23.98
2022-08-19T18:14:21.184Z,23.85
2022-08-19T18:16:48.094Z,23.84
2022-08-19T18:19:14.970Z,23.80
2022-08-19T18:21:41.829Z,23.75
2022-08-19T18:24:08.655Z,23.63
2022-08-19T18:26:35.548Z,23.52
2022-08-19T18:29:02.422Z,23.35
2022-08-19T18:31:29.287Z,23.17
2022-08-19T18:33:56.131Z,23.05
2022-08-19T18:36:50.150Z,22.91
2022-08-19T18:39:10.871Z,22.81
2022-08-19T18:41:39.195Z,22.68
2022-08-19T18:44:06.037Z,22.51
2022-08-19T18:46:36.971Z,22.36
2022-08-19T18:49:05.122Z,22.21
2022-08-19T18:51:32.405Z,22.07
2022-08-19T18:53:59.538Z,21.93
2022-08-19T18:56:26.922Z,21.87
2022-08-19T18:58:53.765Z,21.80
2022-08-19T19:01:34.711Z,21.75
2022-08-19T19:04:03.264Z,21.75
2022-08-19T19:06:32.809Z,21.72
2022-08-19T19:08:59.651Z,21.64
2022-08-19T19:11:28.075Z,21.59
2022-08-19T19:13:55.258Z,21.56
2022-08-19T19:16:24.416Z,21.47
2022-08-19T19:18:52.290Z,21.43
2022-08-19T19:21:19.519Z,21.35
2022-08-19T19:23:46.416Z,21.26
2022-08-19T19:26:13.661Z,21.16
2022-08-19T19:28:42.360Z,21.05
2022-08-19T19:31:11.719Z,21.04
2022-08-19T19:33:39.349Z,20.92
2022-08-19T19:36:06.326Z,20.90
2022-08-19T19:38:33.247Z,20.88
2022-08-19T19:41:00.097Z,20.79
2022-08-19T19:43:27.064Z,20.78
2022-08-19T19:45:53.918Z,20.70
2022-08-19T19:48:20.778Z,20.65
2022-08-19T19:50:55.958Z,20.63
2022-08-19T19:53:24.899Z,20.61
2022-08-19T19:55:56.556Z,20.61
2022-08-19T19:58:28.515Z,20.56
2022-08-19T20:00:56.656Z,20.59
2022-08-19T20:03:23.556Z,20.57
2022-08-19T20:05:50.588Z,20.59
2022-08-19T20:08:18.507Z,20.58
2022-08-19T20:10:45.942Z,20.56
2022-08-19T20:13:12.894Z,20.55
2022-08-19T20:15:42.600Z,20.53
2022-08-19T20:18:10.761Z,20.52
2022-08-19T20:20:38.923Z,20.53
2022-08-19T20:23:06.172Z,20.51
2022-08-19T20:25:34.241Z,20.51
2022-08-19T20:28:01.084Z,20.53
2022-08-19T20:30:28.562Z,20.52
2022-08-19T20:32:57.914Z,20.49
2022-08-19T20:35:24.769Z,20.49
2022-08-19T20:37:56.141Z,20.53
2022-08-19T20:40:25.419Z,20.49
2022-08-19T20:42:52.599Z,20.50
2022-08-19T20:45:33.183Z,20.50
2022-08-19T20:48:01.545Z,20.50
2022-08-19T20:50:28.785Z,20.53
2022-08-19T20:52:57.711Z,20.50
2022-08-19T20:55:24.641Z,20.48
2022-08-19T20:57:51.663Z,20.48
2022-08-19T21:00:18.737Z,20.46
2022-08-19T21:02:45.659Z,20.40
2022-08-19T21:05:12.575Z,20.39
2022-08-19T21:07:39.777Z,20.34
2022-08-19T21:10:06.997Z,20.33
2022-08-19T21:12:33.873Z,20.33
2022-08-19T21:15:01.834Z,20.38
2022-08-19T21:17:28.677Z,20.28
2022-08-19T21:19:55.503Z,20.28
2022-08-19T21:22:22.367Z,20.30
2022-08-19T21:24:49.199Z,20.28
2022-08-19T21:27:16.041Z,20.24
2022-08-19T21:29:42.898Z,20.29
2022-08-19T21:32:09.740Z,20.31
2022-08-19T21:34:40.835Z,20.34
2022-08-19T21:37:14.771Z,20.36
2022-08-19T21:39:51.808Z,20.38
2022-08-19T21:42:18.739Z,20.38
2022-08-19T21:44:46.131Z,20.38
2022-08-19T21:47:13.316Z,20.40
2022-08-19T21:49:40.152Z,20.38
2022-08-19T21:52:07.675Z,20.33
2022-08-19T21:54:38.317Z,20.30
2022-08-19T21:57:10.047Z,20.32
2022-08-19T21:59:44.057Z,20.32
2022-08-19T22:02:19.943Z,20.28
2022-08-19T22:04:48.504Z,20.26
2022-08-19T22:07:15.396Z,20.25
2022-08-19T22:09:43.538Z,20.25
2022-08-19T22:12:11.600Z,20.19
2022-08-19T22:14:38.677Z,20.07
2022-08-19T22:17:05.509Z,20.04
2022-08-19T22:19:32.343Z,20.00
2022-08-19T22:21:59.195Z,19.87
2022-08-19T22:24:26.020Z,19.81
2022-08-19T22:26:52.904Z,19.71
2022-08-19T22:29:19.719Z,19.64
2022-08-19T22:31:57.637Z,19.47
2022-08-19T22:34:25.197Z,19.34
2022-08-19T22:36:52.041Z,19.26
2022-08-19T22:39:18.855Z,19.12
2022-08-19T22:41:45.697Z,19.07
2022-08-19T22:44:12.513Z,19.04
2022-08-19T22:46:39.356Z,18.96
2022-08-19T22:49:06.177Z,18.88
2022-08-19T22:51:33.009Z,18.84
2022-08-19T22:53:59.977Z,18.82
2022-08-19T22:56:26.837Z,18.78
2022-08-19T22:58:53.909Z,18.71
2022-08-19T23:01:29.657Z,18.61
2022-08-19T23:03:58.314Z,18.54
2022-08-19T23:06:33.187Z,18.40
2022-08-19T23:09:04.860Z,18.31
2022-08-19T23:11:32.761Z,18.22
2022-08-19T23:13:59.599Z,18.15
2022-08-19T23:16:26.469Z,18.10
2022-08-19T23:18:55.916Z,17.99
2022-08-19T23:21:23.103Z,17.99
2022-08-19T23:23:49.916Z,17.98
2022-08-19T23:26:16.771Z,17.95
2022-08-19T23:28:43.591Z,17.91
2022-08-19T23:31:10.471Z,17.93
2022-08-19T23:33:50.893Z,17.89
2022-08-19T23:36:19.360Z,17.91
2022-08-19T23:38:46.903Z,17.90
2022-08-19T23:41:14.642Z,17.86
2022-08-19T23:43:41.770Z,17.84
2022-08-19T23:46:10.625Z,17.81
2022-08-19T23:48:38.034Z,17.81
2022-08-19T23:51:06.069Z,17.80
2022-08-19T23:53:33.138Z,17.80
2022-08-19T23:56:00.023Z,17.81
2022-08-19T23:58:27.761Z,17.75
